Loading Events
  • This event has passed.

Fighter Jet

14 May 2022 - 15 May 2022

Fighter Jet

In order to share the passion for aviation with you as much as possible, we organise weekends full of aeronautical activities.

Have a seat in a real fighter plane piloted by a former military pilot.

Share unique moments and live the real fighter pilot experience with our diligent and experienced team.

On the Programme

  • Fighter jet flights

    Your mission starts now. The plane is ready. Your pilot is waiting for you. A final briefing before you hit the skies. All in the presence of your loved ones. Now it’s up to you.

    Book your flight or contact us for more information.

    The simulator experience is included in the price for the fighter jet candidate.

Details

Start:
14 May 2022
End:
15 May 2022

Venue

Aérodrome de Reims-Prunay
Aérodrome de Reims-Prunay
Prunay, 51360 France
+ Google Map
Phone:
03 26 61 05 94
Loading...
METAR:

LFQA 151600Z AUTO 28011KT 9999 -RA FEW044/// OVC050/// ///TCU 08/05 Q1010


live view of the airfield
invoicing legal Notice privacy policy
Cochet Concept
cx